sensor_id;sensor_type;location;lat;lon;timestamp;P1;durP1;ratioP1;P2;durP2;ratioP2
48897;SDS011;34713;50.038;20.000;2023-07-20T01:37:55;6.90;;;3.70;;
48897;SDS011;34713;50.038;20.000;2023-07-20T02:11:20;8.10;;;4.10;;
48897;SDS011;34713;50.038;20.000;2023-07-20T02:24:43;8.60;;;3.80;;
48897;SDS011;34713;50.038;20.000;2023-07-20T02:50:31;6.00;;;3.20;;
48897;SDS011;34713;50.038;20.000;2023-07-20T03:18:12;6.50;;;3.50;;
48897;SDS011;34713;50.038;20.000;2023-07-20T03:21:39;7.60;;;3.70;;
48897;SDS011;34713;50.038;20.000;2023-07-20T03:51:06;7.30;;;3.50;;
48897;SDS011;34713;50.038;20.000;2023-07-20T03:54:04;5.90;;;3.80;;
48897;SDS011;34713;50.038;20.000;2023-07-20T04:00:25;4.90;;;3.30;;
48897;SDS011;34713;50.038;20.000;2023-07-20T04:12:48;5.80;;;3.20;;
48897;SDS011;34713;50.038;20.000;2023-07-20T04:15:23;6.40;;;3.40;;
48897;SDS011;34713;50.038;20.000;2023-07-20T04:18:02;5.50;;;3.60;;
48897;SDS011;34713;50.038;20.000;2023-07-20T04:21:09;8.30;;;3.80;;
48897;SDS011;34713;50.038;20.000;2023-07-20T04:23:39;6.30;;;3.20;;
48897;SDS011;34713;50.038;20.000;2023-07-20T04:26:06;6.00;;;3.60;;
48897;SDS011;34713;50.038;20.000;2023-07-20T04:28:51;6.70;;;3.00;;
48897;SDS011;34713;50.038;20.000;2023-07-20T04:31:21;7.40;;;3.60;;
48897;SDS011;34713;50.038;20.000;2023-07-20T04:33:48;5.90;;;3.70;;
48897;SDS011;34713;50.038;20.000;2023-07-20T04:36:17;5.50;;;3.30;;
48897;SDS011;34713;50.038;20.000;2023-07-20T04:38:45;6.60;;;3.50;;
48897;SDS011;34713;50.038;20.000;2023-07-20T05:11:04;5.70;;;3.10;;
48897;SDS011;34713;50.038;20.000;2023-07-20T05:44:26;6.10;;;2.40;;
48897;SDS011;34713;50.038;20.000;2023-07-20T05:47:41;4.90;;;2.10;;
48897;SDS011;34713;50.038;20.000;2023-07-20T05:50:42;7.10;;;2.80;;
48897;SDS011;34713;50.038;20.000;2023-07-20T06:03:14;3.60;;;2.30;;
48897;SDS011;34713;50.038;20.000;2023-07-20T06:06:08;4.30;;;1.80;;
48897;SDS011;34713;50.038;20.000;2023-07-20T06:09:18;3.90;;;1.80;;
48897;SDS011;34713;50.038;20.000;2023-07-20T06:14:38;3.20;;;1.60;;
48897;SDS011;34713;50.038;20.000;2023-07-20T06:17:05;5.30;;;1.60;;
48897;SDS011;34713;50.038;20.000;2023-07-20T06:19:35;3.60;;;1.90;;
48897;SDS011;34713;50.038;20.000;2023-07-20T06:32:34;2.70;;;1.70;;
48897;SDS011;34713;50.038;20.000;2023-07-20T06:35:36;4.70;;;1.90;;
48897;SDS011;34713;50.038;20.000;2023-07-20T06:38:03;4.80;;;1.60;;
48897;SDS011;34713;50.038;20.000;2023-07-20T06:40:57;2.80;;;1.40;;
48897;SDS011;34713;50.038;20.000;2023-07-20T06:43:53;3.90;;;1.40;;
48897;SDS011;34713;50.038;20.000;2023-07-20T06:46:27;2.90;;;1.30;;
48897;SDS011;34713;50.038;20.000;2023-07-20T06:49:09;2.10;;;1.30;;
48897;SDS011;34713;50.038;20.000;2023-07-20T06:51:41;2.00;;;1.40;;
48897;SDS011;34713;50.038;20.000;2023-07-20T06:54:30;4.70;;;1.20;;
48897;SDS011;34713;50.038;20.000;2023-07-20T06:56:57;2.20;;;1.40;;
48897;SDS011;34713;50.038;20.000;2023-07-20T06:59:24;2.80;;;1.40;;
48897;SDS011;34713;50.038;20.000;2023-07-20T07:04:33;2.60;;;1.30;;
48897;SDS011;34713;50.038;20.000;2023-07-20T07:07:09;5.20;;;1.30;;
48897;SDS011;34713;50.038;20.000;2023-07-20T07:10:01;2.70;;;1.30;;
48897;SDS011;34713;50.038;20.000;2023-07-20T07:14:58;2.80;;;1.40;;
48897;SDS011;34713;50.038;20.000;2023-07-20T07:17:25;3.60;;;1.30;;
48897;SDS011;34713;50.038;20.000;2023-07-20T07:20:17;3.00;;;1.30;;
48897;SDS011;34713;50.038;20.000;2023-07-20T07:22:44;1.60;;;1.10;;
48897;SDS011;34713;50.038;20.000;2023-07-20T07:25:13;4.20;;;1.40;;
48897;SDS011;34713;50.038;20.000;2023-07-20T07:27:41;3.00;;;1.40;;
48897;SDS011;34713;50.038;20.000;2023-07-20T07:30:15;3.70;;;1.70;;
48897;SDS011;34713;50.038;20.000;2023-07-20T07:32:42;3.00;;;1.50;;
48897;SDS011;34713;50.038;20.000;2023-07-20T07:35:09;3.10;;;1.80;;
48897;SDS011;34713;50.038;20.000;2023-07-20T07:37:36;4.40;;;1.40;;
48897;SDS011;34713;50.038;20.000;2023-07-20T07:40:03;6.10;;;1.90;;
48897;SDS011;34713;50.038;20.000;2023-07-20T07:42:32;5.50;;;1.70;;
48897;SDS011;34713;50.038;20.000;2023-07-20T07:45:08;5.40;;;2.10;;
48897;SDS011;34713;50.038;20.000;2023-07-20T07:47:39;2.70;;;1.70;;
48897;SDS011;34713;50.038;20.000;2023-07-20T07:50:06;3.00;;;1.70;;
48897;SDS011;34713;50.038;20.000;2023-07-20T07:52:33;4.60;;;1.70;;
48897;SDS011;34713;50.038;20.000;2023-07-20T07:55:05;4.80;;;1.80;;
48897;SDS011;34713;50.038;20.000;2023-07-20T07:57:34;5.50;;;2.00;;
48897;SDS011;34713;50.038;20.000;2023-07-20T08:00:01;5.10;;;2.30;;
48897;SDS011;34713;50.038;20.000;2023-07-20T08:02:41;5.00;;;2.10;;
48897;SDS011;34713;50.038;20.000;2023-07-20T08:05:09;4.20;;;2.20;;
48897;SDS011;34713;50.038;20.000;2023-07-20T08:07:36;5.30;;;2.30;;
48897;SDS011;34713;50.038;20.000;2023-07-20T08:10:03;4.20;;;2.50;;
48897;SDS011;34713;50.038;20.000;2023-07-20T08:12:31;3.20;;;2.00;;
48897;SDS011;34713;50.038;20.000;2023-07-20T08:15:10;2.10;;;1.80;;
48897;SDS011;34713;50.038;20.000;2023-07-20T08:17:41;5.70;;;1.90;;
48897;SDS011;34713;50.038;20.000;2023-07-20T08:20:13;3.80;;;2.10;;
48897;SDS011;34713;50.038;20.000;2023-07-20T08:22:43;4.80;;;2.40;;
48897;SDS011;34713;50.038;20.000;2023-07-20T08:25:10;3.10;;;1.90;;
48897;SDS011;34713;50.038;20.000;2023-07-20T08:27:42;3.90;;;2.30;;
48897;SDS011;34713;50.038;20.000;2023-07-20T08:30:09;5.80;;;2.10;;
48897;SDS011;34713;50.038;20.000;2023-07-20T08:32:39;6.10;;;2.00;;
48897;SDS011;34713;50.038;20.000;2023-07-20T08:35:09;3.90;;;1.70;;
48897;SDS011;34713;50.038;20.000;2023-07-20T08:37:39;4.90;;;2.00;;
48897;SDS011;34713;50.038;20.000;2023-07-20T08:40:08;3.50;;;2.00;;
48897;SDS011;34713;50.038;20.000;2023-07-20T08:42:36;2.60;;;1.60;;
48897;SDS011;34713;50.038;20.000;2023-07-20T08:45:13;3.30;;;1.90;;
48897;SDS011;34713;50.038;20.000;2023-07-20T08:48:04;2.90;;;1.70;;
48897;SDS011;34713;50.038;20.000;2023-07-20T08:50:31;6.00;;;1.80;;
48897;SDS011;34713;50.038;20.000;2023-07-20T08:55:41;3.40;;;1.80;;
48897;SDS011;34713;50.038;20.000;2023-07-20T08:58:09;3.60;;;1.70;;
48897;SDS011;34713;50.038;20.000;2023-07-20T09:00:41;3.40;;;1.80;;
48897;SDS011;34713;50.038;20.000;2023-07-20T09:03:08;2.50;;;1.50;;
48897;SDS011;34713;50.038;20.000;2023-07-20T09:05:38;2.10;;;1.40;;
48897;SDS011;34713;50.038;20.000;2023-07-20T09:08:08;3.50;;;2.00;;
48897;SDS011;34713;50.038;20.000;2023-07-20T09:10:35;4.90;;;1.90;;
48897;SDS011;34713;50.038;20.000;2023-07-20T09:13:14;5.10;;;1.80;;
48897;SDS011;34713;50.038;20.000;2023-07-20T09:15:52;3.90;;;1.90;;
48897;SDS011;34713;50.038;20.000;2023-07-20T09:21:24;3.40;;;1.70;;
48897;SDS011;34713;50.038;20.000;2023-07-20T09:24:03;4.00;;;1.70;;
48897;SDS011;34713;50.038;20.000;2023-07-20T09:30:06;4.10;;;1.50;;
48897;SDS011;34713;50.038;20.000;2023-07-20T09:32:18;3.80;;;1.40;;
48897;SDS011;34713;50.038;20.000;2023-07-20T09:34:52;1.50;;;1.20;;
48897;SDS011;34713;50.038;20.000;2023-07-20T09:37:22;3.00;;;1.50;;
48897;SDS011;34713;50.038;20.000;2023-07-20T09:39:51;4.10;;;1.30;;
48897;SDS011;34713;50.038;20.000;2023-07-20T09:42:21;2.00;;;1.20;;
48897;SDS011;34713;50.038;20.000;2023-07-20T09:44:53;2.70;;;1.30;;
48897;SDS011;34713;50.038;20.000;2023-07-20T09:47:30;3.70;;;1.30;;
48897;SDS011;34713;50.038;20.000;2023-07-20T09:50:03;3.80;;;1.30;;
48897;SDS011;34713;50.038;20.000;2023-07-20T09:56:21;2.20;;;1.30;;
48897;SDS011;34713;50.038;20.000;2023-07-20T09:58:51;3.00;;;1.40;;
48897;SDS011;34713;50.038;20.000;2023-07-20T10:01:21;1.60;;;1.10;;
48897;SDS011;34713;50.038;20.000;2023-07-20T10:03:48;2.60;;;1.20;;
48897;SDS011;34713;50.038;20.000;2023-07-20T10:09:45;6.20;;;1.40;;
48897;SDS011;34713;50.038;20.000;2023-07-20T10:12:55;1.80;;;1.10;;
48897;SDS011;34713;50.038;20.000;2023-07-20T10:15:24;2.20;;;1.10;;
48897;SDS011;34713;50.038;20.000;2023-07-20T10:21:20;3.20;;;1.30;;
48897;SDS011;34713;50.038;20.000;2023-07-20T10:23:51;2.10;;;0.90;;
48897;SDS011;34713;50.038;20.000;2023-07-20T10:26:22;3.00;;;1.10;;
48897;SDS011;34713;50.038;20.000;2023-07-20T10:28:48;3.60;;;1.30;;
48897;SDS011;34713;50.038;20.000;2023-07-20T10:34:26;3.80;;;1.50;;
48897;SDS011;34713;50.038;20.000;2023-07-20T10:36:55;3.10;;;1.10;;
48897;SDS011;34713;50.038;20.000;2023-07-20T10:39:58;2.80;;;1.10;;
48897;SDS011;34713;50.038;20.000;2023-07-20T10:45:55;1.50;;;1.10;;
48897;SDS011;34713;50.038;20.000;2023-07-20T10:51:57;4.90;;;1.40;;
48897;SDS011;34713;50.038;20.000;2023-07-20T10:54:46;3.90;;;1.20;;
48897;SDS011;34713;50.038;20.000;2023-07-20T10:57:31;1.50;;;1.00;;
48897;SDS011;34713;50.038;20.000;2023-07-20T11:03:34;2.20;;;1.10;;
48897;SDS011;34713;50.038;20.000;2023-07-20T11:09:07;4.20;;;1.20;;
48897;SDS011;34713;50.038;20.000;2023-07-20T11:21:08;6.90;;;1.10;;
48897;SDS011;34713;50.038;20.000;2023-07-20T11:23:38;2.70;;;1.40;;
48897;SDS011;34713;50.038;20.000;2023-07-20T11:26:05;1.90;;;1.30;;
48897;SDS011;34713;50.038;20.000;2023-07-20T11:28:42;2.10;;;1.20;;
48897;SDS011;34713;50.038;20.000;2023-07-20T11:31:08;5.10;;;1.40;;
48897;SDS011;34713;50.038;20.000;2023-07-20T11:33:35;2.90;;;1.40;;
48897;SDS011;34713;50.038;20.000;2023-07-20T11:36:02;4.00;;;1.60;;
48897;SDS011;34713;50.038;20.000;2023-07-20T11:38:29;2.70;;;1.50;;
48897;SDS011;34713;50.038;20.000;2023-07-20T11:46:07;3.30;;;1.70;;
48897;SDS011;34713;50.038;20.000;2023-07-20T11:48:34;4.00;;;1.80;;
48897;SDS011;34713;50.038;20.000;2023-07-20T11:51:03;3.90;;;1.60;;
48897;SDS011;34713;50.038;20.000;2023-07-20T11:53:32;5.10;;;1.60;;
48897;SDS011;34713;50.038;20.000;2023-07-20T11:56:01;5.40;;;2.50;;
48897;SDS011;34713;50.038;20.000;2023-07-20T11:58:28;6.90;;;1.80;;
48897;SDS011;34713;50.038;20.000;2023-07-20T12:00:55;5.00;;;2.10;;
48897;SDS011;34713;50.038;20.000;2023-07-20T12:03:22;3.30;;;2.00;;
48897;SDS011;34713;50.038;20.000;2023-07-20T12:05:49;2.90;;;2.00;;
48897;SDS011;34713;50.038;20.000;2023-07-20T12:08:16;4.90;;;2.00;;
48897;SDS011;34713;50.038;20.000;2023-07-20T12:10:48;4.00;;;2.30;;
48897;SDS011;34713;50.038;20.000;2023-07-20T12:13:18;5.60;;;2.00;;
48897;SDS011;34713;50.038;20.000;2023-07-20T12:16:14;5.10;;;2.80;;
48897;SDS011;34713;50.038;20.000;2023-07-20T12:18:44;6.30;;;2.90;;
48897;SDS011;34713;50.038;20.000;2023-07-20T12:21:21;5.30;;;2.50;;
48897;SDS011;34713;50.038;20.000;2023-07-20T12:23:50;4.00;;;2.40;;
48897;SDS011;34713;50.038;20.000;2023-07-20T12:26:17;4.10;;;2.60;;
48897;SDS011;34713;50.038;20.000;2023-07-20T12:28:43;10.20;;;2.60;;
48897;SDS011;34713;50.038;20.000;2023-07-20T12:31:10;3.70;;;2.50;;
48897;SDS011;34713;50.038;20.000;2023-07-20T12:33:39;5.40;;;2.30;;
48897;SDS011;34713;50.038;20.000;2023-07-20T12:36:06;4.40;;;2.20;;
48897;SDS011;34713;50.038;20.000;2023-07-20T12:38:33;3.90;;;2.50;;
48897;SDS011;34713;50.038;20.000;2023-07-20T12:41:03;5.40;;;2.00;;
48897;SDS011;34713;50.038;20.000;2023-07-20T12:43:32;5.00;;;2.00;;
48897;SDS011;34713;50.038;20.000;2023-07-20T12:45:59;3.50;;;2.10;;
48897;SDS011;34713;50.038;20.000;2023-07-20T12:48:29;3.50;;;2.00;;
48897;SDS011;34713;50.038;20.000;2023-07-20T12:51:10;3.20;;;1.90;;
48897;SDS011;34713;50.038;20.000;2023-07-20T12:56:16;4.70;;;2.30;;
48897;SDS011;34713;50.038;20.000;2023-07-20T12:58:50;3.00;;;1.90;;
48897;SDS011;34713;50.038;20.000;2023-07-20T13:01:17;2.40;;;1.80;;
48897;SDS011;34713;50.038;20.000;2023-07-20T13:03:51;3.20;;;2.10;;
48897;SDS011;34713;50.038;20.000;2023-07-20T13:06:19;4.30;;;2.00;;
48897;SDS011;34713;50.038;20.000;2023-07-20T13:08:50;3.10;;;1.70;;
48897;SDS011;34713;50.038;20.000;2023-07-20T13:11:21;6.90;;;1.80;;
48897;SDS011;34713;50.038;20.000;2023-07-20T13:13:48;3.40;;;2.20;;
48897;SDS011;34713;50.038;20.000;2023-07-20T13:18:56;3.20;;;2.00;;
48897;SDS011;34713;50.038;20.000;2023-07-20T13:21:23;4.30;;;2.00;;
48897;SDS011;34713;50.038;20.000;2023-07-20T13:23:54;2.50;;;1.80;;
48897;SDS011;34713;50.038;20.000;2023-07-20T13:26:21;4.00;;;2.20;;
48897;SDS011;34713;50.038;20.000;2023-07-20T13:28:47;3.70;;;2.20;;
48897;SDS011;34713;50.038;20.000;2023-07-20T13:31:16;4.10;;;2.30;;
48897;SDS011;34713;50.038;20.000;2023-07-20T13:33:43;4.50;;;1.90;;
48897;SDS011;34713;50.038;20.000;2023-07-20T13:36:10;3.60;;;2.30;;
48897;SDS011;34713;50.038;20.000;2023-07-20T13:38:39;3.90;;;2.40;;
48897;SDS011;34713;50.038;20.000;2023-07-20T13:41:06;4.90;;;2.20;;
48897;SDS011;34713;50.038;20.000;2023-07-20T13:43:33;3.40;;;2.20;;
48897;SDS011;34713;50.038;20.000;2023-07-20T13:46:00;4.50;;;2.40;;
48897;SDS011;34713;50.038;20.000;2023-07-20T13:48:30;2.20;;;1.80;;
48897;SDS011;34713;50.038;20.000;2023-07-20T13:50:56;6.00;;;2.10;;
48897;SDS011;34713;50.038;20.000;2023-07-20T13:53:47;4.50;;;1.90;;
48897;SDS011;34713;50.038;20.000;2023-07-20T13:56:14;2.80;;;2.00;;
48897;SDS011;34713;50.038;20.000;2023-07-20T13:58:41;5.00;;;2.10;;
48897;SDS011;34713;50.038;20.000;2023-07-20T14:01:10;2.60;;;2.00;;
48897;SDS011;34713;50.038;20.000;2023-07-20T14:03:40;3.30;;;1.70;;
48897;SDS011;34713;50.038;20.000;2023-07-20T14:06:16;4.60;;;1.70;;
48897;SDS011;34713;50.038;20.000;2023-07-20T14:08:43;4.80;;;1.80;;
48897;SDS011;34713;50.038;20.000;2023-07-20T14:11:15;6.10;;;2.20;;
48897;SDS011;34713;50.038;20.000;2023-07-20T14:13:44;2.90;;;1.30;;
48897;SDS011;34713;50.038;20.000;2023-07-20T14:16:14;3.20;;;1.40;;
48897;SDS011;34713;50.038;20.000;2023-07-20T14:18:44;3.00;;;1.70;;
48897;SDS011;34713;50.038;20.000;2023-07-20T14:21:13;3.00;;;1.50;;
48897;SDS011;34713;50.038;20.000;2023-07-20T14:23:40;2.40;;;1.20;;
48897;SDS011;34713;50.038;20.000;2023-07-20T14:26:07;2.70;;;1.20;;
48897;SDS011;34713;50.038;20.000;2023-07-20T14:28:35;3.60;;;1.30;;
48897;SDS011;34713;50.038;20.000;2023-07-20T14:31:02;1.80;;;1.40;;
48897;SDS011;34713;50.038;20.000;2023-07-20T14:33:29;2.10;;;1.10;;
48897;SDS011;34713;50.038;20.000;2023-07-20T14:35:56;2.90;;;1.30;;
48897;SDS011;34713;50.038;20.000;2023-07-20T14:48:25;3.10;;;1.30;;
48897;SDS011;34713;50.038;20.000;2023-07-20T14:54:25;1.90;;;1.10;;
48897;SDS011;34713;50.038;20.000;2023-07-20T14:57:01;3.90;;;1.10;;
48897;SDS011;34713;50.038;20.000;2023-07-20T15:06:09;4.30;;;1.00;;
48897;SDS011;34713;50.038;20.000;2023-07-20T15:08:55;2.20;;;1.50;;
48897;SDS011;34713;50.038;20.000;2023-07-20T15:11:49;2.20;;;0.80;;
48897;SDS011;34713;50.038;20.000;2023-07-20T15:14:19;2.80;;;1.10;;
48897;SDS011;34713;50.038;20.000;2023-07-20T15:17:29;2.40;;;1.10;;
48897;SDS011;34713;50.038;20.000;2023-07-20T15:26:41;3.60;;;1.30;;
48897;SDS011;34713;50.038;20.000;2023-07-20T15:29:16;4.50;;;1.30;;
48897;SDS011;34713;50.038;20.000;2023-07-20T15:31:46;2.90;;;1.20;;
48897;SDS011;34713;50.038;20.000;2023-07-20T15:34:16;2.80;;;1.40;;
48897;SDS011;34713;50.038;20.000;2023-07-20T15:37:16;2.70;;;1.30;;
48897;SDS011;34713;50.038;20.000;2023-07-20T15:39:47;3.50;;;1.20;;
48897;SDS011;34713;50.038;20.000;2023-07-20T15:48:38;5.10;;;1.70;;
48897;SDS011;34713;50.038;20.000;2023-07-20T15:54:26;2.00;;;1.10;;
48897;SDS011;34713;50.038;20.000;2023-07-20T15:56:53;4.00;;;0.90;;
48897;SDS011;34713;50.038;20.000;2023-07-20T15:59:20;2.50;;;1.20;;
48897;SDS011;34713;50.038;20.000;2023-07-20T16:04:52;2.90;;;1.10;;
48897;SDS011;34713;50.038;20.000;2023-07-20T16:07:19;2.50;;;1.20;;
48897;SDS011;34713;50.038;20.000;2023-07-20T16:09:48;3.80;;;1.10;;
48897;SDS011;34713;50.038;20.000;2023-07-20T16:12:15;2.60;;;1.10;;
48897;SDS011;34713;50.038;20.000;2023-07-20T16:15:22;1.80;;;1.00;;
48897;SDS011;34713;50.038;20.000;2023-07-20T16:18:16;1.70;;;1.00;;
48897;SDS011;34713;50.038;20.000;2023-07-20T16:20:46;1.90;;;1.20;;
48897;SDS011;34713;50.038;20.000;2023-07-20T16:23:32;3.30;;;1.40;;
48897;SDS011;34713;50.038;20.000;2023-07-20T16:25:59;2.70;;;1.50;;
48897;SDS011;34713;50.038;20.000;2023-07-20T16:46:08;1.90;;;1.00;;
48897;SDS011;34713;50.038;20.000;2023-07-20T16:48:52;2.20;;;1.20;;
48897;SDS011;34713;50.038;20.000;2023-07-20T16:52:00;2.60;;;1.00;;
48897;SDS011;34713;50.038;20.000;2023-07-20T17:01:34;2.60;;;1.10;;
48897;SDS011;34713;50.038;20.000;2023-07-20T17:11:26;2.30;;;1.00;;
48897;SDS011;34713;50.038;20.000;2023-07-20T17:13:55;1.20;;;0.90;;
48897;SDS011;34713;50.038;20.000;2023-07-20T17:16:35;2.00;;;1.30;;
48897;SDS011;34713;50.038;20.000;2023-07-20T17:19:37;2.00;;;0.90;;
48897;SDS011;34713;50.038;20.000;2023-07-20T17:22:44;2.20;;;1.00;;
48897;SDS011;34713;50.038;20.000;2023-07-20T17:35:20;1.60;;;0.80;;
48897;SDS011;34713;50.038;20.000;2023-07-20T17:38:10;1.70;;;1.10;;
48897;SDS011;34713;50.038;20.000;2023-07-20T17:40:53;2.70;;;1.20;;
48897;SDS011;34713;50.038;20.000;2023-07-20T17:43:52;2.80;;;1.00;;
48897;SDS011;34713;50.038;20.000;2023-07-20T17:46:43;1.50;;;1.10;;
48897;SDS011;34713;50.038;20.000;2023-07-20T17:55:47;1.80;;;1.10;;
48897;SDS011;34713;50.038;20.000;2023-07-20T18:15:27;3.10;;;1.30;;
48897;SDS011;34713;50.038;20.000;2023-07-20T18:18:07;4.40;;;1.40;;
48897;SDS011;34713;50.038;20.000;2023-07-20T18:24:24;3.90;;;1.50;;
48897;SDS011;34713;50.038;20.000;2023-07-20T18:26:54;2.50;;;1.10;;
48897;SDS011;34713;50.038;20.000;2023-07-20T18:29:34;2.40;;;1.30;;
48897;SDS011;34713;50.038;20.000;2023-07-20T18:32:42;2.90;;;1.50;;
48897;SDS011;34713;50.038;20.000;2023-07-20T18:39:04;2.60;;;1.30;;
48897;SDS011;34713;50.038;20.000;2023-07-20T18:42:00;1.90;;;1.40;;
48897;SDS011;34713;50.038;20.000;2023-07-20T18:44:33;2.30;;;1.40;;
48897;SDS011;34713;50.038;20.000;2023-07-20T18:50:00;2.20;;;1.40;;
48897;SDS011;34713;50.038;20.000;2023-07-20T18:52:48;4.00;;;1.40;;
48897;SDS011;34713;50.038;20.000;2023-07-20T18:55:16;4.20;;;1.50;;
48897;SDS011;34713;50.038;20.000;2023-07-20T19:01:13;4.10;;;1.60;;
48897;SDS011;34713;50.038;20.000;2023-07-20T19:03:43;2.60;;;1.50;;
48897;SDS011;34713;50.038;20.000;2023-07-20T19:06:30;6.50;;;1.80;;
48897;SDS011;34713;50.038;20.000;2023-07-20T19:16:23;3.50;;;2.10;;
48897;SDS011;34713;50.038;20.000;2023-07-20T19:25:19;4.00;;;2.30;;
48897;SDS011;34713;50.038;20.000;2023-07-20T19:28:17;4.30;;;2.30;;
48897;SDS011;34713;50.038;20.000;2023-07-20T19:44:22;4.70;;;2.00;;
48897;SDS011;34713;50.038;20.000;2023-07-20T20:04:22;4.50;;;3.20;;
48897;SDS011;34713;50.038;20.000;2023-07-20T20:07:01;5.20;;;2.80;;
48897;SDS011;34713;50.038;20.000;2023-07-20T20:23:26;6.10;;;3.10;;
48897;SDS011;34713;50.038;20.000;2023-07-20T20:26:12;6.10;;;3.60;;
48897;SDS011;34713;50.038;20.000;2023-07-20T20:29:07;7.50;;;3.70;;
48897;SDS011;34713;50.038;20.000;2023-07-20T20:35:59;3.30;;;2.40;;
48897;SDS011;34713;50.038;20.000;2023-07-20T20:38:58;5.00;;;2.50;;
48897;SDS011;34713;50.038;20.000;2023-07-20T20:41:28;4.10;;;2.50;;
48897;SDS011;34713;50.038;20.000;2023-07-20T20:54:40;7.60;;;2.70;;
48897;SDS011;34713;50.038;20.000;2023-07-20T20:57:17;4.00;;;2.40;;
48897;SDS011;34713;50.038;20.000;2023-07-20T21:03:13;4.40;;;2.30;;
48897;SDS011;34713;50.038;20.000;2023-07-20T21:06:18;6.50;;;2.40;;
48897;SDS011;34713;50.038;20.000;2023-07-20T21:09:57;7.00;;;2.80;;
48897;SDS011;34713;50.038;20.000;2023-07-20T21:12:32;5.70;;;2.90;;
48897;SDS011;34713;50.038;20.000;2023-07-20T21:15:42;3.20;;;2.50;;
48897;SDS011;34713;50.038;20.000;2023-07-20T21:22:09;6.20;;;2.60;;
48897;SDS011;34713;50.038;20.000;2023-07-20T21:32:14;4.90;;;2.50;;
48897;SDS011;34713;50.038;20.000;2023-07-20T21:34:44;4.30;;;2.40;;
48897;SDS011;34713;50.038;20.000;2023-07-20T21:47:26;4.10;;;2.00;;
48897;SDS011;34713;50.038;20.000;2023-07-20T22:55:42;6.90;;;3.10;;
48897;SDS011;34713;50.038;20.000;2023-07-20T22:59:02;6.70;;;3.60;;
48897;SDS011;34713;50.038;20.000;2023-07-20T23:16:24;6.30;;;3.60;;
48897;SDS011;34713;50.038;20.000;2023-07-20T23:46:37;6.80;;;3.50;;
